Open Full Screen Window  High Contrast Mode
Wind Gusting 00 knots
09
October 31, 2014 7:26 PM EDT
Weather Information
Wind Direction
  300 °
Wind Speed
  09 kt (10 mph)
Wind Gust
  00 kt (0 mph)
Altimeter
29.95 in
Visibility
10 SM
Temperature
05° C
41° F
Dewpoint
02° C
36° F
Humidity
81%
1hr Rain Fall
00.00 in.
24hr Rain Fall
00.06 in.
Sky Condition
Overcast @ 3,100 ft
Broken @ 2,600 ft
Scattered @ 1,700 ft
MVFR

METAR KI69 312326Z AUTO 30009KT 10SM SCT017 BKN026 OVC031 05/02 A2995 RMK AO1

*Background is not an actual portrayal of the airport.